Time;durP1;ratioP1;P1;durP2;ratioP2;P2;SDS_P1;SDS_P2;PMS_P1;PMS_P2;Temp;Humidity;BMP_temperature;BMP_pressure;BME280_temperature;BME280_humidity;BME280_pressure;Samples;Min_cycle;Max_cycle;Signal;HPM_P1;HPM_P2
2021/05/13 00:02:02;;;;;;;11.18;4.15;;;13.90;80.10;;;;;;5051363;28;20034;-89
2021/05/13 00:04:28;;;;;;;12.68;4.25;;;13.90;80.10;;;;;;5021392;28;20025;-89
2021/05/13 00:06:53;;;;;;;13.00;4.47;;;13.90;80.20;;;;;;5020380;28;20029;-89
2021/05/13 00:09:19;;;;;;;11.82;4.25;;;13.80;80.40;;;;;;5019325;28;20045;-89
2021/05/13 00:11:47;;;;;;;13.88;4.80;;;13.80;81.30;;;;;;5016190;28;20087;-89
2021/05/13 00:14:16;;;;;;;13.75;4.20;;;13.80;80.50;;;;;;5018606;28;20116;-89
2021/05/13 00:16:41;;;;;;;15.30;4.80;;;13.80;80.50;;;;;;5036944;28;20101;-89
2021/05/13 00:19:10;;;;;;;14.27;4.25;;;13.80;80.50;;;;;;5038885;28;20356;-89
2021/05/13 00:21:37;;;;;;;11.23;4.25;;;13.70;80.40;;;;;;5033444;28;20079;-90
2021/05/13 00:24:04;;;;;;;14.85;5.05;;;13.70;80.50;;;;;;5020533;28;20037;-89
2021/05/13 00:26:37;;;;;;;9.63;4.18;;;13.70;80.50;;;;;;5036786;28;20039;-90
2021/05/13 00:29:08;;;;;;;12.88;3.92;;;13.70;80.70;;;;;;5035855;28;20030;-89
2021/05/13 00:31:34;;;;;;;15.38;4.57;;;13.60;80.60;;;;;;5019968;28;20053;-88
2021/05/13 00:34:01;;;;;;;15.93;4.60;;;13.60;80.60;;;;;;5036706;28;20025;-89
2021/05/13 00:36:29;;;;;;;12.38;4.78;;;13.70;80.70;;;;;;5032767;28;20044;-89
2021/05/13 00:38:55;;;;;;;16.58;4.63;;;13.60;80.70;;;;;;5037208;28;20028;-89
2021/05/13 00:41:21;;;;;;;11.27;4.45;;;13.60;80.70;;;;;;5074946;28;20036;-89
2021/05/13 00:43:46;;;;;;;12.40;4.47;;;13.60;80.90;;;;;;5039323;28;20099;-89
2021/05/13 00:46:12;;;;;;;14.38;4.70;;;13.60;80.70;;;;;;5015625;28;20025;-89
2021/05/13 00:48:40;;;;;;;14.00;4.80;;;13.60;80.70;;;;;;5014683;28;20021;-90
2021/05/13 00:51:06;;;;;;;14.65;4.72;;;13.60;80.80;;;;;;5012994;28;20545;-89
2021/05/13 00:53:31;;;;;;;13.13;4.72;;;13.50;80.80;;;;;;5012524;28;20035;-90
2021/05/13 00:55:57;;;;;;;14.25;4.88;;;13.60;80.90;;;;;;5012471;28;20219;-89
2021/05/13 00:58:26;;;;;;;13.73;4.45;;;13.60;80.90;;;;;;5045787;28;20061;-89
2021/05/13 01:01:04;;;;;;;13.02;4.20;;;13.50;80.80;;;;;;5045396;28;20144;-89
2021/05/13 01:03:32;;;;;;;12.50;3.95;;;13.50;80.80;;;;;;5012507;28;20488;-90
2021/05/13 01:05:58;;;;;;;13.03;5.30;;;13.50;81.00;;;;;;5012836;28;20542;-89
2021/05/13 01:08:23;;;;;;;14.30;4.97;;;13.40;80.90;;;;;;5012369;28;20026;-89
2021/05/13 01:10:49;;;;;;;12.60;4.18;;;13.50;80.90;;;;;;5012392;28;20022;-89
2021/05/13 01:13:19;;;;;;;13.60;4.47;;;13.50;80.90;;;;;;5029543;28;20100;-89
2021/05/13 01:15:53;;;;;;;16.85;4.60;;;13.50;80.90;;;;;;5011581;28;20033;-89
2021/05/13 01:18:24;;;;;;;13.57;4.85;;;13.40;80.90;;;;;;5011871;28;20399;-89
2021/05/13 01:20:50;;;;;;;12.52;3.92;;;13.50;81.00;;;;;;5022629;28;20040;-89
2021/05/13 01:23:16;;;;;;;14.80;4.15;;;13.40;81.00;;;;;;5031530;28;20072;-88
2021/05/13 01:25:45;;;;;;;11.43;4.03;;;13.40;80.80;;;;;;5031661;28;20040;-89
2021/05/13 01:28:10;;;;;;;12.60;3.92;;;13.40;80.80;;;;;;5031470;28;20055;-89
2021/05/13 01:30:36;;;;;;;13.82;4.18;;;13.40;80.80;;;;;;5031683;28;20071;-89
2021/05/13 01:33:03;;;;;;;12.55;4.00;;;13.40;80.80;;;;;;5031421;28;20534;-89
2021/05/13 01:35:29;;;;;;;12.32;4.00;;;13.30;80.90;;;;;;5025654;28;20033;-89
2021/05/13 01:38:08;;;;;;;11.73;4.20;;;13.30;80.90;;;;;;5029751;28;20026;-89
2021/05/13 01:40:34;;;;;;;;;;;13.30;80.90;;;;;;5012417;28;20052;-90
2021/05/13 01:43:00;;;;;;;12.50;3.78;;;13.30;80.80;;;;;;5012890;28;19913;-90
2021/05/13 01:45:26;;;;;;;14.68;5.18;;;13.20;80.90;;;;;;5016497;28;20025;-90
2021/05/13 01:47:51;;;;;;;12.07;4.05;;;13.30;80.80;;;;;;5015691;28;20507;-89
2021/05/13 01:50:17;;;;;;;13.20;4.30;;;13.30;80.80;;;;;;5015721;28;20108;-89
2021/05/13 01:52:42;;;;;;;12.23;3.60;;;13.20;80.80;;;;;;5015408;28;20025;-89
2021/05/13 01:55:08;;;;;;;13.68;4.38;;;13.20;80.80;;;;;;5015675;28;20026;-89
2021/05/13 01:57:34;;;;;;;13.90;4.22;;;13.20;80.80;;;;;;5015639;28;20044;-89
2021/05/13 01:59:59;;;;;;;13.38;4.05;;;13.20;80.80;;;;;;5015421;28;20293;-89
2021/05/13 02:02:25;;;;;;;11.95;4.13;;;13.20;80.80;;;;;;5033593;28;20057;-89
2021/05/13 02:04:50;;;;;;;11.90;4.10;;;13.20;80.90;;;;;;5035012;28;20021;-89
2021/05/13 02:07:16;;;;;;;14.13;3.92;;;13.20;80.90;;;;;;5022938;28;20057;-89
2021/05/13 02:09:42;;;;;;;10.63;4.20;;;13.10;80.80;;;;;;5015396;28;20451;-90
2021/05/13 02:12:08;;;;;;;10.40;4.13;;;13.10;80.90;;;;;;5015513;28;20036;-89
2021/05/13 02:14:34;;;;;;;10.38;3.75;;;13.10;80.90;;;;;;5015281;28;20029;-89
2021/05/13 02:16:59;;;;;;;12.55;4.13;;;13.10;80.90;;;;;;5014777;28;20099;-89
2021/05/13 02:19:25;;;;;;;12.98;4.15;;;13.10;81.00;;;;;;5015306;28;20369;-89
2021/05/13 02:21:50;;;;;;;13.70;4.22;;;13.00;81.00;;;;;;5035398;28;20033;-89
2021/05/13 02:24:16;;;;;;;11.90;3.90;;;12.90;81.10;;;;;;5035682;28;20099;-89
2021/05/13 02:26:43;;;;;;;12.35;4.20;;;12.90;81.30;;;;;;5034326;28;20047;-89
2021/05/13 02:29:08;;;;;;;13.57;3.80;;;12.90;81.30;;;;;;5016492;28;20029;-89
2021/05/13 02:31:34;;;;;;;10.85;3.78;;;12.90;81.30;;;;;;5016301;28;20463;-89
2021/05/13 02:33:59;;;;;;;12.45;3.70;;;12.90;81.30;;;;;;5015035;28;20496;-89
2021/05/13 02:36:25;;;;;;;17.45;4.43;;;12.80;81.70;;;;;;5014371;28;20087;-89
2021/05/13 02:38:50;;;;;;;13.55;4.10;;;12.80;81.30;;;;;;5014789;28;20033;-89
2021/05/13 02:41:16;;;;;;;17.58;4.90;;;12.80;81.20;;;;;;5014513;28;20029;-89
2021/05/13 02:43:42;;;;;;;15.80;4.88;;;12.90;81.30;;;;;;5014235;28;20063;-89
2021/05/13 02:46:07;;;;;;;17.10;4.80;;;12.80;81.30;;;;;;5032130;28;20112;-89
2021/05/13 02:48:33;;;;;;;15.15;5.20;;;12.80;81.40;;;;;;5025888;28;20029;-90
2021/05/13 02:50:58;;;;;;;13.98;4.95;;;12.80;81.40;;;;;;5034076;28;20029;-89
2021/05/13 02:53:24;;;;;;;16.48;4.80;;;12.80;81.40;;;;;;5033633;28;20606;-89
2021/05/13 02:55:49;;;;;;;16.50;5.05;;;12.70;81.40;;;;;;5034596;28;20449;-89
2021/05/13 02:58:15;;;;;;;13.93;5.22;;;12.80;81.40;;;;;;5034820;28;20472;-88
2021/05/13 03:00:54;;;;;;;13.63;4.60;;;12.70;81.40;;;;;;5034269;28;20029;-89
2021/05/13 03:03:20;;;;;;;15.98;5.43;;;12.70;81.50;;;;;;5035736;28;20029;-88
2021/05/13 03:05:45;;;;;;;16.83;5.82;;;12.70;81.40;;;;;;5034327;28;20032;-88
2021/05/13 03:08:13;;;;;;;15.35;5.15;;;12.70;81.40;;;;;;5034103;28;20021;-89
2021/05/13 03:13:08;;;;;;;17.43;5.03;;;12.60;81.40;;;;;;5051510;28;20057;-88
2021/05/13 03:15:34;;;;;;;17.25;5.25;;;12.60;81.50;;;;;;5034040;28;20117;-88
2021/05/13 03:18:00;;;;;;;17.25;5.15;;;12.60;81.60;;;;;;5033451;28;20060;-89
2021/05/13 03:20:35;;;;;;;15.13;4.75;;;12.60;81.60;;;;;;5024886;28;20140;-89
2021/05/13 03:23:02;;;;;;;15.27;4.88;;;12.50;81.50;;;;;;5013394;28;20056;-88
2021/05/13 03:25:31;;;;;;;14.48;4.95;;;12.60;81.70;;;;;;5013860;28;20055;-89
2021/05/13 03:28:09;;;;;;;14.25;4.80;;;12.50;81.60;;;;;;5013358;28;20150;-89
2021/05/13 03:30:40;;;;;;;14.60;5.25;;;12.50;81.60;;;;;;5014187;28;20034;-90
2021/05/13 03:33:06;;;;;;;14.32;5.18;;;12.60;81.50;;;;;;4992302;28;20548;-89
2021/05/13 03:35:33;;;;;;;15.13;5.18;;;12.50;81.40;;;;;;4990678;28;20389;-89
2021/05/13 03:37:59;;;;;;;14.25;5.50;;;12.50;81.40;;;;;;4990622;28;20030;-88
2021/05/13 03:40:26;;;;;;;15.93;4.97;;;12.50;81.50;;;;;;5003220;28;20034;-89
2021/05/13 03:42:52;;;;;;;16.85;5.30;;;12.50;81.70;;;;;;5009583;28;20033;-88
2021/05/13 03:45:17;;;;;;;17.15;5.90;;;12.50;81.70;;;;;;5011465;28;20370;-88
2021/05/13 03:47:43;;;;;;;13.63;5.20;;;12.50;81.70;;;;;;5010049;28;20026;-89
2021/05/13 03:50:09;;;;;;;14.13;4.80;;;12.40;81.80;;;;;;5010569;28;20049;-88
2021/05/13 03:52:35;;;;;;;15.98;5.47;;;12.40;81.80;;;;;;5009930;28;20030;-89
2021/05/13 03:55:00;;;;;;;16.65;5.82;;;12.40;81.80;;;;;;5011622;28;20033;-88
2021/05/13 03:57:26;;;;;;;15.73;5.05;;;12.40;81.90;;;;;;5009812;28;20075;-89
2021/05/13 03:59:55;;;;;;;17.65;6.28;;;12.40;81.90;;;;;;5009918;28;20457;-89
2021/05/13 04:02:33;;;;;;;14.27;5.22;;;12.30;81.90;;;;;;5010577;28;20022;-89
2021/05/13 04:05:03;;;;;;;15.13;5.28;;;12.30;82.00;;;;;;5009426;28;20080;-89
2021/05/13 04:07:30;;;;;;;16.05;5.43;;;12.30;81.90;;;;;;5009211;28;20022;-89
2021/05/13 04:09:57;;;;;;;15.55;5.55;;;12.30;81.90;;;;;;5009717;28;20045;-89
2021/05/13 04:12:23;;;;;;;17.73;5.43;;;12.30;81.90;;;;;;5008648;28;20029;-89
2021/05/13 04:14:50;;;;;;;15.15;5.15;;;12.30;81.90;;;;;;5008997;28;20504;-89
2021/05/13 04:17:15;;;;;;;14.52;5.07;;;12.30;82.50;;;;;;5009831;28;20026;-89
2021/05/13 04:19:41;;;;;;;17.70;5.75;;;12.30;81.80;;;;;;5007492;28;20022;-89
2021/05/13 04:22:07;;;;;;;17.08;5.65;;;12.30;81.80;;;;;;5003868;28;20132;-89
2021/05/13 04:24:33;;;;;;;18.60;5.85;;;12.30;81.80;;;;;;5009564;28;20026;-89
2021/05/13 04:26:58;;;;;;;16.55;5.70;;;12.30;81.90;;;;;;5009576;28;20018;-89
2021/05/13 04:29:24;;;;;;;15.57;5.10;;;12.20;82.30;;;;;;5009890;28;20086;-89
2021/05/13 04:31:50;;;;;;;15.38;5.30;;;12.20;82.10;;;;;;5014976;28;20054;-88
2021/05/13 04:34:15;;;;;;;15.02;5.15;;;12.20;82.10;;;;;;5037692;28;20040;-88
2021/05/13 04:36:41;;;;;;;17.02;5.78;;;12.20;82.10;;;;;;5032483;28;20025;-88
2021/05/13 04:39:06;;;;;;;17.25;5.10;;;12.20;82.00;;;;;;5032254;28;20028;-89
2021/05/13 04:41:33;;;;;;;14.35;5.47;;;12.20;82.00;;;;;;5064810;28;20155;-89
2021/05/13 04:44:01;;;;;;;16.13;5.30;;;12.20;82.10;;;;;;5065029;28;20531;-89
2021/05/13 04:46:29;;;;;;;14.52;5.63;;;12.20;82.10;;;;;;5032570;28;20469;-88
2021/05/13 04:49:14;;;;;;;13.45;5.13;;;12.20;82.00;;;;;;5032154;28;20479;-90
2021/05/13 04:51:40;;;;;;;15.23;5.57;;;12.20;82.10;;;;;;5046392;28;20033;-89
2021/05/13 04:54:06;;;;;;;12.38;5.45;;;12.10;82.20;;;;;;5012360;28;20026;-88
2021/05/13 04:56:32;;;;;;;14.95;5.68;;;12.10;82.20;;;;;;5029993;28;20029;-89
2021/05/13 04:58:58;;;;;;;13.93;5.22;;;12.10;82.10;;;;;;5012584;28;20084;-89
2021/05/13 05:01:24;;;;;;;15.82;5.60;;;12.10;82.30;;;;;;5012105;28;20104;-88
2021/05/13 05:03:49;;;;;;;15.48;5.35;;;12.10;82.30;;;;;;5011874;28;20484;-88
2021/05/13 05:06:16;;;;;;;13.82;4.78;;;12.10;82.30;;;;;;5012229;28;20017;-89
2021/05/13 05:08:42;;;;;;;13.82;5.07;;;12.10;82.20;;;;;;5012335;28;20056;-89
2021/05/13 05:11:08;;;;;;;16.52;5.07;;;12.10;82.20;;;;;;5011970;28;20029;-89
2021/05/13 05:13:34;;;;;;;15.45;5.30;;;12.10;82.10;;;;;;5011704;28;20033;-89
2021/05/13 05:16:00;;;;;;;15.05;5.78;;;12.10;82.20;;;;;;5029565;28;20017;-89
2021/05/13 05:18:26;;;;;;;14.90;5.18;;;12.10;82.30;;;;;;5011635;28;20036;-89
2021/05/13 05:20:52;;;;;;;14.40;4.82;;;12.00;82.50;;;;;;5056522;28;20415;-89
2021/05/13 05:23:18;;;;;;;16.05;5.35;;;11.90;82.60;;;;;;5031086;28;20032;-89
2021/05/13 05:25:44;;;;;;;12.73;5.05;;;11.90;82.80;;;;;;5049404;28;20032;-89
2021/05/13 05:28:10;;;;;;;12.98;4.50;;;11.90;82.80;;;;;;5031925;28;20017;-89
2021/05/13 05:30:37;;;;;;;15.80;4.82;;;11.90;82.80;;;;;;5031254;28;20022;-89
2021/05/13 05:33:05;;;;;;;14.77;5.47;;;12.00;82.80;;;;;;5027747;28;20053;-89
2021/05/13 05:35:31;;;;;;;15.13;5.30;;;12.00;82.70;;;;;;5011412;28;20021;-89
2021/05/13 05:37:57;;;;;;;14.70;5.55;;;12.00;82.60;;;;;;5011848;28;20485;-88
2021/05/13 05:40:23;;;;;;;16.27;5.78;;;12.10;82.20;;;;;;5011732;28;20037;-89
2021/05/13 05:42:49;;;;;;;13.90;5.07;;;12.10;82.30;;;;;;5028780;28;20476;-89
2021/05/13 05:45:16;;;;;;;16.73;5.88;;;12.10;82.40;;;;;;5028968;28;20021;-90
2021/05/13 05:47:42;;;;;;;17.88;5.82;;;12.10;82.40;;;;;;5048704;28;20033;-89
2021/05/13 05:50:08;;;;;;;21.48;6.63;;;12.10;82.40;;;;;;5031685;28;20024;-89
2021/05/13 05:52:34;;;;;;;16.85;5.95;;;12.20;82.50;;;;;;5030860;28;20029;-89
2021/05/13 05:55:00;;;;;;;15.48;6.00;;;12.20;82.30;;;;;;5048075;28;20290;-89
2021/05/13 05:57:26;;;;;;;15.30;5.65;;;12.30;82.40;;;;;;5031415;28;20029;-89
2021/05/13 05:59:52;;;;;;;15.25;6.22;;;12.30;82.30;;;;;;5031175;28;20029;-89
2021/05/13 06:02:18;;;;;;;17.63;6.55;;;12.30;82.20;;;;;;5030851;28;20138;-90
2021/05/13 06:04:43;;;;;;;15.95;6.85;;;12.30;82.20;;;;;;5023007;28;20480;-89
2021/05/13 06:07:09;;;;;;;19.42;7.28;;;12.40;82.20;;;;;;5011427;28;20017;-89
2021/05/13 06:09:34;;;;;;;20.05;6.38;;;12.40;82.10;;;;;;5011243;28;20068;-88
2021/05/13 06:12:00;;;;;;;15.50;6.63;;;12.50;82.10;;;;;;5010766;28;20029;-88
2021/05/13 06:14:25;;;;;;;17.70;6.70;;;12.50;82.00;;;;;;5011411;28;20039;-89
2021/05/13 06:16:51;;;;;;;20.13;6.68;;;12.60;81.90;;;;;;5028678;28;20124;-89
2021/05/13 06:19:18;;;;;;;19.33;6.22;;;12.60;82.10;;;;;;5011402;28;20034;-89
2021/05/13 06:21:44;;;;;;;16.02;6.75;;;12.70;81.80;;;;;;5029742;28;20059;-89
2021/05/13 06:24:11;;;;;;;18.88;6.40;;;12.80;81.90;;;;;;5031030;28;20464;-89
2021/05/13 06:26:38;;;;;;;16.30;6.28;;;12.80;81.50;;;;;;5030911;28;20025;-89
2021/05/13 06:29:05;;;;;;;17.95;6.70;;;12.90;81.70;;;;;;5011972;28;20026;-89
2021/05/13 06:31:32;;;;;;;16.30;6.45;;;12.90;81.90;;;;;;5014062;28;20053;-88
2021/05/13 06:33:57;;;;;;;17.75;6.57;;;13.00;81.60;;;;;;5014631;28;20025;-90
2021/05/13 06:36:23;;;;;;;16.73;6.57;;;13.10;81.20;;;;;;5014621;28;20048;-89
2021/05/13 06:38:49;;;;;;;17.45;5.93;;;13.20;81.60;;;;;;5047702;28;20116;-89
2021/05/13 06:41:15;;;;;;;17.70;6.22;;;13.20;81.20;;;;;;5014421;28;20026;-89
2021/05/13 06:43:41;;;;;;;13.43;4.72;;;13.40;80.80;;;;;;5013890;28;20032;-89
2021/05/13 06:46:06;;;;;;;15.32;4.57;;;13.50;80.60;;;;;;5014180;28;20059;-89
2021/05/13 06:48:35;;;;;;;11.93;4.22;;;13.60;80.00;;;;;;5014770;28;20473;-89
2021/05/13 06:51:02;;;;;;;13.70;4.07;;;13.70;79.50;;;;;;5014544;28;20112;-89
2021/05/13 06:53:27;;;;;;;12.10;3.72;;;13.80;79.10;;;;;;5013740;28;20026;-89
2021/05/13 06:55:53;;;;;;;12.98;4.13;;;13.90;78.20;;;;;;5017841;28;20035;-89
2021/05/13 06:58:23;;;;;;;13.98;3.83;;;14.00;78.10;;;;;;5034309;28;20024;-89
2021/05/13 07:00:49;;;;;;;13.73;3.90;;;14.10;77.70;;;;;;5033888;28;20025;-89
2021/05/13 07:03:16;;;;;;;16.02;3.95;;;14.20;77.80;;;;;;5033599;28;20388;-89
2021/05/13 07:05:42;;;;;;;11.88;3.90;;;14.20;77.20;;;;;;5034007;28;20021;-89
2021/05/13 07:08:09;;;;;;;13.63;3.85;;;14.30;76.90;;;;;;5024179;28;20098;-89
2021/05/13 07:10:36;;;;;;;12.60;3.38;;;14.40;76.50;;;;;;5033858;28;20017;-89
2021/05/13 07:13:02;;;;;;;12.10;3.60;;;14.40;76.50;;;;;;5033360;28;20033;-89
2021/05/13 07:15:28;;;;;;;14.27;3.70;;;14.50;76.40;;;;;;5033376;28;20438;-89
2021/05/13 07:17:54;;;;;;;12.20;3.65;;;14.60;76.30;;;;;;5024530;28;20033;-88
2021/05/13 07:20:21;;;;;;;12.52;3.45;;;14.70;76.20;;;;;;5020776;28;20100;-89
2021/05/13 07:22:46;;;;;;;14.10;3.83;;;14.80;76.00;;;;;;5033313;28;20123;-89
2021/05/13 07:25:12;;;;;;;12.90;3.58;;;14.80;75.40;;;;;;5067007;28;20460;-89
2021/05/13 07:27:38;;;;;;;11.02;3.33;;;14.90;75.20;;;;;;5032977;28;20028;-89
2021/05/13 07:30:04;;;;;;;10.50;3.40;;;15.00;75.00;;;;;;5033694;28;20033;-89
2021/05/13 07:32:30;;;;;;;10.15;3.42;;;15.00;74.90;;;;;;5050643;28;20365;-89
2021/05/13 07:34:56;;;;;;;12.93;3.33;;;15.10;74.60;;;;;;5051259;28;20210;-89
2021/05/13 07:37:22;;;;;;;17.38;4.75;;;15.20;74.20;;;;;;5032649;28;20033;-89
2021/05/13 07:39:48;;;;;;;12.93;3.22;;;15.20;73.80;;;;;;5066412;28;20028;-89
2021/05/13 07:42:14;;;;;;;13.90;3.67;;;15.30;73.60;;;;;;5065777;28;20415;-89
2021/05/13 07:44:40;;;;;;;11.93;3.53;;;15.30;73.30;;;;;;5033112;28;20036;-89
2021/05/13 07:47:05;;;;;;;14.27;3.63;;;15.40;73.70;;;;;;5019627;28;20025;-88
2021/05/13 07:49:34;;;;;;;10.27;2.47;;;15.40;73.00;;;;;;5013401;28;20017;-89
2021/05/13 07:52:00;;;;;;;10.02;2.58;;;15.50;73.30;;;;;;5013453;28;20025;-90
2021/05/13 07:54:25;;;;;;;11.90;2.45;;;15.50;72.60;;;;;;5013184;28;20116;-89
2021/05/13 07:56:51;;;;;;;16.05;3.15;;;15.50;70.80;;;;;;5013644;28;20120;-89
2021/05/13 07:59:16;;;;;;;10.30;3.30;;;15.70;71.90;;;;;;5013644;28;20411;-90
2021/05/13 08:01:42;;;;;;;10.60;2.30;;;15.70;71.20;;;;;;5012666;28;20026;-89
2021/05/13 08:04:07;;;;;;;12.90;2.90;;;15.70;70.70;;;;;;5012893;28;20025;-89
2021/05/13 08:06:33;;;;;;;11.50;2.90;;;15.70;70.20;;;;;;5016455;28;20120;-89
2021/05/13 08:08:58;;;;;;;10.13;2.45;;;15.80;70.30;;;;;;5032341;28;20480;-89
2021/05/13 08:11:24;;;;;;;12.43;2.53;;;15.80;70.60;;;;;;5050256;28;20033;-89
2021/05/13 08:13:49;;;;;;;11.30;2.95;;;15.90;70.20;;;;;;5032934;28;20025;-89
2021/05/13 08:16:15;;;;;;;11.10;2.47;;;15.90;69.70;;;;;;5032538;28;20074;-89
2021/05/13 08:18:41;;;;;;;12.48;2.97;;;15.90;69.40;;;;;;5014576;28;20032;-89
2021/05/13 08:21:06;;;;;;;11.27;2.70;;;16.10;70.30;;;;;;5059793;28;20032;-90
2021/05/13 08:23:32;;;;;;;12.52;2.78;;;16.20;70.00;;;;;;5050122;28;20017;-89
2021/05/13 08:25:58;;;;;;;15.73;3.00;;;16.20;69.80;;;;;;5032771;28;20028;-89
2021/05/13 08:28:24;;;;;;;7.88;2.40;;;16.30;70.20;;;;;;5032041;28;20033;-89
2021/05/13 08:30:49;;;;;;;12.85;2.70;;;16.30;70.10;;;;;;5023549;28;20021;-90
2021/05/13 08:33:15;;;;;;;13.55;3.15;;;16.50;69.80;;;;;;5012303;28;20459;-90
2021/05/13 08:35:41;;;;;;;9.55;3.25;;;16.60;69.40;;;;;;5012796;28;20025;-89
2021/05/13 08:38:07;;;;;;;12.02;3.03;;;16.60;69.10;;;;;;5012533;28;20407;-89
2021/05/13 08:40:33;;;;;;;10.98;3.00;;;16.70;68.80;;;;;;5012721;28;20084;-88
2021/05/13 08:42:59;;;;;;;12.05;2.90;;;16.80;69.50;;;;;;5029896;28;20048;-89
2021/05/13 08:45:27;;;;;;;9.65;2.90;;;16.90;69.30;;;;;;5012394;28;20542;-89
2021/05/13 08:47:53;;;;;;;12.13;2.90;;;16.90;68.90;;;;;;5048706;28;20021;-90
2021/05/13 08:50:19;;;;;;;11.00;3.00;;;17.00;68.40;;;;;;5032563;28;20027;-90
2021/05/13 08:52:45;;;;;;;10.57;3.00;;;17.00;68.10;;;;;;5030716;28;20115;-89
2021/05/13 08:55:12;;;;;;;10.90;3.47;;;17.10;68.50;;;;;;5032441;28;20571;-88
2021/05/13 08:57:38;;;;;;;11.70;3.22;;;17.20;68.30;;;;;;5032089;28;20028;-89
2021/05/13 09:00:06;;;;;;;12.30;3.38;;;17.20;68.20;;;;;;5031110;28;20487;-89
2021/05/13 09:02:32;;;;;;;8.93;2.90;;;17.30;68.60;;;;;;5031627;28;20399;-89
2021/05/13 09:04:59;;;;;;;11.30;3.00;;;17.30;68.00;;;;;;5032359;28;20307;-89
2021/05/13 09:07:28;;;;;;;13.20;3.72;;;17.30;67.80;;;;;;5031695;28;20032;-89
2021/05/13 09:10:00;;;;;;;13.48;3.72;;;17.40;66.80;;;;;;5017395;28;20117;-90
2021/05/13 09:12:31;;;;;;;13.18;3.20;;;17.40;68.10;;;;;;5011545;28;20026;-89
2021/05/13 09:15:03;;;;;;;9.43;2.72;;;17.40;67.60;;;;;;5011817;28;20048;-89
2021/05/13 09:17:30;;;;;;;12.77;2.88;;;17.40;66.90;;;;;;5012024;28;20041;-90
2021/05/13 09:19:56;;;;;;;11.65;3.63;;;17.20;67.10;;;;;;5015649;28;20487;-89
2021/05/13 09:22:24;;;;;;;11.50;3.30;;;17.20;67.70;;;;;;5031252;28;20167;-89
2021/05/13 09:25:10;;;;;;;12.60;3.67;;;17.40;67.20;;;;;;5065282;28;20020;-89
2021/05/13 09:27:51;;;;;;;11.52;3.38;;;17.50;65.90;;;;;;5065008;28;20013;-89
2021/05/13 09:30:23;;;;;;;10.75;3.28;;;17.60;66.90;;;;;;5018667;28;20025;-89
2021/05/13 09:32:59;;;;;;;11.60;3.45;;;17.60;65.90;;;;;;5011145;28;20049;-89
2021/05/13 09:35:29;;;;;;;14.50;3.80;;;17.70;67.40;;;;;;5012054;28;20030;-89
2021/05/13 09:37:57;;;;;;;12.38;3.50;;;17.70;65.40;;;;;;5011632;28;20053;-90
2021/05/13 09:40:41;;;;;;;14.10;3.17;;;17.70;65.90;;;;;;5022059;28;20040;-89
2021/05/13 09:43:16;;;;;;;11.52;3.20;;;17.80;63.40;;;;;;5049132;28;20037;-89
2021/05/13 09:45:44;;;;;;;11.52;3.38;;;17.80;66.10;;;;;;5049356;28;20024;-89
2021/05/13 09:48:10;;;;;;;17.10;4.10;;;17.80;66.20;;;;;;5031438;28;20028;-89
2021/05/13 09:50:35;;;;;;;14.05;3.25;;;17.80;66.30;;;;;;5022434;28;20400;-90
2021/05/13 09:53:03;;;;;;;12.25;3.65;;;17.80;66.40;;;;;;5011687;28;20036;-88
2021/05/13 09:55:32;;;;;;;13.57;3.13;;;17.80;66.60;;;;;;5011833;28;20103;-89
2021/05/13 09:58:07;;;;;;;13.50;3.78;;;17.80;65.90;;;;;;5029381;28;20022;-90
2021/05/13 10:00:48;;;;;;;12.05;3.15;;;17.70;66.30;;;;;;5017671;28;20107;-90
2021/05/13 10:03:24;;;;;;;12.15;2.92;;;17.70;64.40;;;;;;5031880;28;20036;-89
2021/05/13 10:05:52;;;;;;;12.75;2.92;;;17.80;66.10;;;;;;5052471;28;20021;-89
2021/05/13 10:08:19;;;;;;;11.80;3.25;;;17.90;66.40;;;;;;5034924;28;20032;-90
2021/05/13 10:10:47;;;;;;;12.63;2.80;;;18.00;66.30;;;;;;5031308;28;20028;-89
2021/05/13 10:13:17;;;;;;;10.10;3.25;;;18.10;65.50;;;;;;5017473;28;20032;-89
2021/05/13 10:15:43;;;;;;;10.82;2.38;;;18.20;64.90;;;;;;5017219;28;20550;-89
2021/05/13 10:18:23;;;;;;;10.90;2.58;;;18.30;64.60;;;;;;5032936;28;20104;-90
2021/05/13 10:20:54;;;;;;;12.05;3.00;;;18.40;63.30;;;;;;5023591;28;20033;-89
2021/05/13 10:23:20;;;;;;;12.43;3.55;;;18.50;65.00;;;;;;5034765;28;20126;-89
2021/05/13 10:25:46;;;;;;;14.23;3.63;;;18.50;63.90;;;;;;5035091;28;20270;-89
2021/05/13 10:28:13;;;;;;;12.55;2.90;;;18.30;64.20;;;;;;5034676;28;20625;-89
2021/05/13 10:30:39;;;;;;;12.40;3.10;;;18.30;64.50;;;;;;5034606;28;20504;-89
2021/05/13 10:33:19;;;;;;;14.98;3.00;;;18.30;65.20;;;;;;5013432;28;20056;-89
2021/05/13 10:36:08;;;;;;;15.38;4.45;;;18.50;64.20;;;;;;5011517;28;20030;-89
2021/05/13 10:38:54;;;;;;;12.55;3.95;;;18.60;64.50;;;;;;5011515;28;20026;-89
2021/05/13 10:41:29;;;;;;;13.80;4.18;;;18.60;60.40;;;;;;5010517;28;20894;-89
2021/05/13 10:44:08;;;;;;;16.08;4.15;;;18.60;62.50;;;;;;4991959;28;20045;-89
2021/05/13 10:46:35;;;;;;;11.32;3.20;;;18.50;63.20;;;;;;4992065;28;20310;-89
2021/05/13 10:49:16;;;;;;;12.27;3.50;;;18.50;64.40;;;;;;4991989;28;20477;-90
2021/05/13 10:51:43;;;;;;;12.48;4.15;;;18.60;60.80;;;;;;4992241;28;20280;-89
2021/05/13 10:54:11;;;;;;;13.98;3.13;;;18.60;64.30;;;;;;4993390;28;20031;-89
2021/05/13 10:56:37;;;;;;;12.77;3.10;;;18.50;64.20;;;;;;4992936;28;20030;-90
2021/05/13 10:59:09;;;;;;;11.88;2.97;;;18.50;64.30;;;;;;4991568;28;20034;-89
2021/05/13 11:01:48;;;;;;;12.50;3.40;;;18.50;64.70;;;;;;4991238;28;20126;-89
2021/05/13 11:06:48;;;;;;;11.40;3.67;;;18.50;61.40;;;;;;5012751;28;20462;-89
2021/05/13 11:09:39;;;;;;;14.38;4.10;;;18.50;63.90;;;;;;5012207;28;20034;-90
2021/05/13 11:12:19;;;;;;;14.32;3.97;;;18.50;62.30;;;;;;5011419;28;20030;-89
2021/05/13 11:20:30;;;;;;;12.30;3.72;;;18.60;61.80;;;;;;4999094;28;20041;-89
2021/05/13 11:22:58;;;;;;;12.95;4.07;;;18.60;59.90;;;;;;5008805;28;20041;-89
2021/05/13 11:25:25;;;;;;;13.02;3.78;;;18.80;63.70;;;;;;4991653;28;20073;-90
2021/05/13 11:27:51;;;;;;;12.73;3.90;;;18.90;62.80;;;;;;4990743;28;20053;-89
2021/05/13 11:30:24;;;;;;;16.38;4.05;;;19.00;63.20;;;;;;4990962;28;20026;-89
2021/05/13 11:32:51;;;;;;;11.80;3.88;;;19.00;59.60;;;;;;5023371;28;20529;-89
2021/05/13 11:35:21;;;;;;;13.93;4.25;;;19.00;62.20;;;;;;4990502;28;20034;-89
2021/05/13 11:37:51;;;;;;;11.77;4.10;;;18.90;62.20;;;;;;4990832;28;20030;-90
2021/05/13 11:40:19;;;;;;;11.95;4.20;;;18.90;62.40;;;;;;4990606;28;20052;-88
2021/05/13 11:42:45;;;;;;;13.77;4.13;;;18.80;63.20;;;;;;5003855;28;20116;-90
2021/05/13 11:45:23;;;;;;;13.48;3.92;;;18.70;62.20;;;;;;5010366;28;20441;-89
2021/05/13 11:47:49;;;;;;;14.02;3.80;;;18.60;60.10;;;;;;4990564;28;20029;-89
2021/05/13 11:50:31;;;;;;;15.05;4.60;;;18.60;63.20;;;;;;4991144;28;20026;-88
2021/05/13 11:53:06;;;;;;;14.73;3.70;;;18.70;62.90;;;;;;4990412;28;20030;-89
2021/05/13 11:55:32;;;;;;;14.15;4.53;;;18.80;61.80;;;;;;5005648;28;20021;-89
2021/05/13 11:57:58;;;;;;;12.85;3.90;;;18.80;61.90;;;;;;5009232;28;20504;-88
2021/05/13 12:00:23;;;;;;;12.20;4.18;;;18.90;62.30;;;;;;5009670;28;20034;-90
2021/05/13 12:02:49;;;;;;;13.43;3.63;;;19.20;62.30;;;;;;5009279;28;20026;-89
2021/05/13 12:05:14;;;;;;;13.15;4.43;;;19.30;61.60;;;;;;5009804;28;20014;-88
2021/05/13 12:07:40;;;;;;;12.63;3.65;;;19.50;61.20;;;;;;5010256;28;20416;-90
2021/05/13 12:10:06;;;;;;;14.15;3.30;;;19.70;61.20;;;;;;5009921;28;20049;-90
2021/05/13 12:12:32;;;;;;;12.55;3.47;;;19.90;61.30;;;;;;5009515;28;20026;-90
2021/05/13 12:14:57;;;;;;;11.57;3.17;;;20.10;60.10;;;;;;5009328;28;20026;-89
2021/05/13 12:17:23;;;;;;;14.20;3.78;;;20.30;58.90;;;;;;5009475;28;20500;-90
2021/05/13 12:19:48;;;;;;;11.50;3.30;;;20.30;59.60;;;;;;5006623;28;20030;-89
2021/05/13 12:22:15;;;;;;;11.13;3.05;;;20.50;59.30;;;;;;4989846;28;20041;-90
2021/05/13 12:24:42;;;;;;;10.73;3.70;;;20.60;57.50;;;;;;4990467;28;20076;-90
2021/05/13 12:27:13;;;;;;;10.20;3.00;;;20.80;57.60;;;;;;4990693;28;20096;-89
2021/05/13 12:29:45;;;;;;;12.77;3.78;;;20.90;56.10;;;;;;4989795;28;20022;-89
2021/05/13 12:32:11;;;;;;;10.52;3.17;;;20.80;55.60;;;;;;5011006;28;20046;-89
2021/05/13 12:34:45;;;;;;;10.18;2.97;;;20.70;56.90;;;;;;5012410;28;20116;-90
2021/05/13 12:37:21;;;;;;;12.98;3.40;;;20.70;57.10;;;;;;5028853;28;20028;-89
2021/05/13 12:39:47;;;;;;;5.93;2.75;;;20.60;58.00;;;;;;5032316;28;20029;-89
2021/05/13 12:42:27;;;;;;;10.35;2.92;;;20.60;57.10;;;;;;5031527;28;20503;-89
2021/05/13 12:45:15;;;;;;;9.02;2.72;;;20.70;57.00;;;;;;5020089;28;20065;-90
2021/05/13 12:47:42;;;;;;;10.05;2.78;;;20.70;55.60;;;;;;5030259;28;20035;-90
2021/05/13 12:50:09;;;;;;;9.52;2.80;;;20.60;54.70;;;;;;5031912;28;20052;-89
2021/05/13 12:52:34;;;;;;;10.85;2.63;;;20.60;56.90;;;;;;5043527;28;20090;-89